sensor_id;sensor_type;location;lat;lon;timestamp;pressure;altitude;pressure_sealevel;temperature;humidity
15558;BME280;7880;50.110;9.372;2023-07-20T13:37:08;20.93058186681592;;;20.75;71.5947318064251
15558;BME280;7880;50.110;9.372;2023-07-20T13:42:13;21.999683788145195;;;21.25;69.81030794999373
15558;BME280;7880;50.110;9.372;2023-07-20T13:47:16;21.687020552164178;;;21.437;68.1069656031904
15558;BME280;7880;50.110;9.372;2023-07-20T13:52:20;22.22157450528466;;;21.812;66.70279126980179
15558;BME280;7880;50.110;9.372;2023-07-20T13:57:29;21.94925415828475;;;21.812;62.504489250447435
15558;BME280;7880;50.110;9.372;2023-07-20T14:02:33;22.14088690658682;;;21.875;57.393434083314915
15558;BME280;7880;50.110;9.372;2023-07-20T14:07:37;21.81309430303518;;;21.75;58.48040854808682
15558;BME280;7880;50.110;9.372;2023-07-20T14:12:43;21.883695682976395;;;21.687;58.73317282692192
15558;BME280;7880;50.110;9.372;2023-07-20T14:17:52;21.898824557528133;;;21.687;52.51180642565547
15558;BME280;7880;50.110;9.372;2023-07-20T14:22:56;21.787879538309063;;;21.625;55.41904476960448
15558;BME280;7880;50.110;9.372;2023-07-20T14:27:59;21.797965443326394;;;21.687;56.22275776292357
15558;BME280;7880;50.110;9.372;2023-07-20T14:33:01;22.070285318844252;;;21.812;56.06552540332992
15558;BME280;7880;50.110;9.372;2023-07-20T14:38:15;22.080371256457873;;;21.875;52.615558801791636
15558;BME280;7880;50.110;9.372;2023-07-20T14:43:10;22.559454634063876;;;22.062;52.429790409578395
15558;BME280;7880;50.110;9.372;2023-07-20T14:48:15;22.771260754112156;;;22.25;53.62884799087903
15558;BME280;7880;50.110;9.372;2023-07-20T14:53:22;22.50398168746033;;;22.562;52.66744927791862
15558;BME280;7880;50.110;9.372;2023-07-20T14:58:25;22.23166046036058;;;22.062;53.14252904191513
15558;BME280;7880;50.110;9.372;2023-07-20T15:03:31;22.21653152818326;;;22.0;53.16920424555882
15558;BME280;7880;50.110;9.372;2023-07-20T15:08:34;22.630056617036463;;;22.187;49.27882596415553
15558;BME280;7880;50.110;9.372;2023-07-20T15:13:45;23.154530276358127;;;22.75;50.01727466959213
15558;BME280;7880;50.110;9.372;2023-07-20T15:18:51;23.05366971278563;;;22.812;49.45295840226878
15558;BME280;7880;50.110;9.372;2023-07-20T15:23:51;22.841862908215262;;;22.625;50.172510670263016
15558;BME280;7880;50.110;9.372;2023-07-20T15:28:56;22.786389782332115;;;22.687;51.22796226402034
15558;BME280;7880;50.110;9.372;2023-07-20T15:34:02;22.287133234087378;;;22.25;52.5461567313432
15558;BME280;7880;50.110;9.372;2023-07-20T15:39:13;22.16105879927636;;;22.0;53.17819971389952
15558;BME280;7880;50.110;9.372;2023-07-20T15:44:13;21.868566811044;;;21.875;60.240011112769515
15558;BME280;7880;50.110;9.372;2023-07-20T15:49:26;21.55590404421673;;;21.5;63.32197026515091
15558;BME280;7880;50.110;9.372;2023-07-20T15:54:25;22.30730516053736;;;21.812;62.421066422737695
15558;BME280;7880;50.110;9.372;2023-07-20T15:59:35;22.080371256457873;;;21.875;62.95071485446852
15558;BME280;7880;50.110;9.372;2023-07-20T16:04:35;22.17618772184942;;;21.875;63.340927920570095
15558;BME280;7880;50.110;9.372;2023-07-20T16:09:39;22.181230696622514;;;21.75;62.815390589465494
15558;BME280;7880;50.110;9.372;2023-07-20T16:14:47;21.999683788145195;;;21.812;63.97563559905662
15558;BME280;7880;50.110;9.372;2023-07-20T16:20:26;21.646676990302513;;;21.625;64.27985020592914
15558;BME280;7880;50.110;9.372;2023-07-20T16:25:09;21.777793634455882;;;21.625;66.37673178509971
15558;BME280;7880;50.110;9.372;2023-07-20T16:30:12;21.414701871067518;;;21.375;66.96986297937825
15558;BME280;7880;50.110;9.372;2023-07-20T16:35:16;21.450002392963505;;;21.312;68.12337242221292
15558;BME280;7880;50.110;9.372;2023-07-20T16:40:25;21.444959460390965;;;21.312;68.52288529906089
15558;BME280;7880;50.110;9.372;2023-07-20T16:45:32;21.63154815940652;;;21.375;69.48148236170155
15558;BME280;7880;50.110;9.372;2023-07-20T16:50:35;21.21298487666645;;;21.25;67.5617767898449
15558;BME280;7880;50.110;9.372;2023-07-20T16:55:43;21.46513119242736;;;21.25;65.68089987539992
15558;BME280;7880;50.110;9.372;2023-07-20T17:00:50;21.42478773301118;;;21.187;64.18560404534324
15558;BME280;7880;50.110;9.372;2023-07-20T17:05:48;21.757621830241987;;;21.437;64.34052989149556
15558;BME280;7880;50.110;9.372;2023-07-20T17:10:54;21.591204623156226;;;21.375;64.56338636835423
15558;BME280;7880;50.110;9.372;2023-07-20T17:16:01;22.292176215263318;;;21.75;64.39373315585654
15558;BME280;7880;50.110;9.372;2023-07-20T17:21:05;22.115672047273257;;;21.812;65.18508992504628
15558;BME280;7880;50.110;9.372;2023-07-20T17:26:08;22.034984546364285;;;21.812;61.83162556763784
15558;BME280;7880;50.110;9.372;2023-07-20T17:31:14;22.100543135177578;;;21.75;62.96810054468005
15558;BME280;7880;50.110;9.372;2023-07-20T17:36:21;22.12071501855389;;;21.812;61.868727854566266
15558;BME280;7880;50.110;9.372;2023-07-20T17:41:25;21.66180582381785;;;21.625;61.55169658329485
15558;BME280;7880;50.110;9.372;2023-07-20T17:46:27;21.515560542891034;;;21.375;62.32907052082004
15558;BME280;7880;50.110;9.372;2023-07-20T17:51:32;21.354186723852763;;;21.25;62.69364489914564
15558;BME280;7880;50.110;9.372;2023-07-20T17:56:38;21.576075801864498;;;21.312;62.92252660203467
15558;BME280;7880;50.110;9.372;2023-07-20T18:01:43;21.192813202837716;;;21.187;63.79341754993099
15558;BME280;7880;50.110;9.372;2023-07-20T18:06:49;21.2331565551518;;;21.062;63.995857571354726
15558;BME280;7880;50.110;9.372;2023-07-20T18:11:54;21.25332823829376;;;21.062;64.19713095842721
15558;BME280;7880;50.110;9.372;2023-07-20T18:17:00;21.02639707142953;;;20.875;64.7079722358704
15558;BME280;7880;50.110;9.372;2023-07-20T18:22:08;21.157512784842403;;;20.937;64.7699284223622
15558;BME280;7880;50.110;9.372;2023-07-20T18:27:14;20.849895460210973;;;20.812;65.91255990923979
15558;BME280;7880;50.110;9.372;2023-07-20T18:32:21;20.804509389237502;;;20.687;67.34026202783869
15558;BME280;7880;50.110;9.372;2023-07-20T18:37:20;20.703651538142005;;;20.625;67.2040686522954
15558;BME280;7880;50.110;9.372;2023-07-20T18:41:26;20.34560710695223;;;20.375;68.46342205394659
15558;BME280;7880;50.110;9.372;2023-07-20T18:46:32;20.39099293956533;;;20.312;70.16408938758822
15558;BME280;7880;50.110;9.372;2023-07-20T18:51:38;20.143892580555985;;;20.187;70.84601365878919
15558;BME280;7880;50.110;9.372;2023-07-20T18:56:43;19.942178519821027;;;20.062;72.95046222104106
15558;BME280;7880;50.110;9.372;2023-07-20T19:01:48;19.705165093485267;;;19.812;73.3669862713805
15558;BME280;7880;50.110;9.372;2023-07-20T19:06:54;19.634565473743713;;;19.75;74.70973513952666
15558;BME280;7880;50.110;9.372;2023-07-20T19:12:00;19.362253189086914;;;19.562;78.08312696240662
15558;BME280;7880;50.110;9.372;2023-07-20T19:17:07;19.427809772646288;;;19.562;79.03825042031028
15558;BME280;7880;50.110;9.372;2023-07-20T19:22:10;18.999171463027597;;;19.312;80.15505629467111
15558;BME280;7880;50.110;9.372;2023-07-20T19:27:15;18.716775608062743;;;19.062;82.13405726574011
15558;BME280;7880;50.110;9.372;2023-07-20T19:32:23;18.731903934298316;;;18.937;83.26921259506386
15558;BME280;7880;50.110;9.372;2023-07-20T19:37:26;18.600791860610478;;;18.75;86.56784432229176
15558;BME280;7880;50.110;9.372;2023-07-20T19:42:34;18.54027866218821;;;18.75;85.22618198322782
15558;BME280;7880;50.110;9.372;2023-07-20T19:47:39;18.247798793955006;;;18.562;91.26316056865504
15558;BME280;7880;50.110;9.372;2023-07-20T19:52:43;17.985576296184444;;;18.312;96.65795488363925
15558;BME280;7880;50.110;9.372;2023-07-20T19:57:50;17.935148982988903;;;18.25;98.1975962120173
15558;BME280;7880;50.110;9.372;2023-07-20T20:02:50;17.77882449703757;;;18.062;100.0
15558;BME280;7880;50.110;9.372;2023-07-20T20:07:56;17.839337168098428;;;18.187;98.81648956457106
15558;BME280;7880;50.110;9.372;2023-07-20T20:13:03;17.66788470894098;;;17.875;100.0
15558;BME280;7880;50.110;9.372;2023-07-20T20:18:09;17.546859646216035;;;17.812;100.0
15558;BME280;7880;50.110;9.372;2023-07-20T20:23:17;17.466176364198326;;;17.812;100.0
15558;BME280;7880;50.110;9.372;2023-07-20T20:28:18;17.123273246828468;;;17.687;100.0
15558;BME280;7880;50.110;9.372;2023-07-20T20:33:23;17.22916965415352;;;17.437;100.0
15558;BME280;7880;50.110;9.372;2023-07-20T20:38:29;17.158572035009275;;;17.312;100.0
15558;BME280;7880;50.110;9.372;2023-07-20T20:43:33;17.05771839232766;;;17.062;100.0
15558;BME280;7880;50.110;9.372;2023-07-20T20:48:45;17.087974472908535;;;17.125;100.0
15558;BME280;7880;50.110;9.372;2023-07-20T20:53:45;16.916523488151142;;;17.187;100.0
15558;BME280;7880;50.110;9.372;2023-07-20T20:58:50;16.876182128867367;;;17.0;100.0
15558;BME280;7880;50.110;9.372;2023-07-20T21:03:57;16.90643814658397;;;17.0;100.0
15558;BME280;7880;50.110;9.372;2023-07-20T21:08:59;16.921566159371288;;;17.187;100.0
15558;BME280;7880;50.110;9.372;2023-07-20T21:14:05;16.659347641840576;;;16.937;100.0
15558;BME280;7880;50.110;9.372;2023-07-20T21:19:09;16.709774218709207;;;16.937;100.0
15558;BME280;7880;50.110;9.372;2023-07-20T21:24:11;16.634134364320197;;;16.937;100.0
15558;BME280;7880;50.110;9.372;2023-07-20T21:29:17;16.593793135421585;;;16.937;100.0
15558;BME280;7880;50.110;9.372;2023-07-20T21:34:23;16.639177019242197;;;16.937;100.0
15558;BME280;7880;50.110;9.372;2023-07-20T21:39:28;16.477812206093223;;;16.75;100.0
15558;BME280;7880;50.110;9.372;2023-07-20T21:44:33;16.442513692943614;;;16.812;100.0
15558;BME280;7880;50.110;9.372;2023-07-20T21:49:39;16.311405054671923;;;16.625;100.0
15558;BME280;7880;50.110;9.372;2023-07-20T21:54:50;16.15004084688262;;;16.5;100.0
15558;BME280;7880;50.110;9.372;2023-07-20T21:59:50;16.134912967681885;;;16.5;100.0
15558;BME280;7880;50.110;9.372;2023-07-20T22:04:56;16.06431623271201;;;16.375;100.0
15558;BME280;7880;50.110;9.372;2023-07-20T22:09:59;16.170211356558138;;;16.437;100.0
15558;BME280;7880;50.110;9.372;2023-07-20T22:15:09;16.09961459306651;;;16.312;100.0
15558;BME280;7880;50.110;9.372;2023-07-20T22:20:13;15.907995093992213;;;16.187;100.0
15558;BME280;7880;50.110;9.372;2023-07-20T22:25:17;15.923122933902778;;;16.25;100.0
15558;BME280;7880;50.110;9.372;2023-07-20T22:30:22;15.897909868840362;;;16.25;100.0
15558;BME280;7880;50.110;9.372;2023-07-20T22:35:29;15.862611589976586;;;16.187;100.0
15558;BME280;7880;50.110;9.372;2023-07-20T22:40:35;15.998762172745774;;;16.25;100.0
15558;BME280;7880;50.110;9.372;2023-07-20T22:45:38;16.003804790996945;;;16.312;100.0
15558;BME280;7880;50.110;9.372;2023-07-20T22:50:48;15.822270717308857;;;16.312;100.0
15558;BME280;7880;50.110;9.372;2023-07-20T22:55:52;15.877739422029117;;;16.25;100.0
15558;BME280;7880;50.110;9.372;2023-07-20T23:00:54;15.73654642473557;;;16.125;100.0
15558;BME280;7880;50.110;9.372;2023-07-20T23:05:58;15.74158902785275;;;16.0;100.0
15558;BME280;7880;50.110;9.372;2023-07-20T23:11:08;15.76680204780423;;;16.062;100.0
15558;BME280;7880;50.110;9.372;2023-07-20T23:16:11;15.781929863267578;;;16.187;100.0
15558;BME280;7880;50.110;9.372;2023-07-20T23:21:16;15.797057681350271;;;16.125;100.0
15558;BME280;7880;50.110;9.372;2023-07-20T23:26:21;15.76680204780423;;;16.125;100.0
15558;BME280;7880;50.110;9.372;2023-07-20T23:31:27;15.756716838950524;;;16.125;100.0
15558;BME280;7880;50.110;9.372;2023-07-20T23:36:36;15.76680204780423;;;16.062;100.0
15558;BME280;7880;50.110;9.372;2023-07-20T23:41:40;15.615524037234717;;;16.0;100.0
15558;BME280;7880;50.110;9.372;2023-07-20T23:45:41;15.655864814441884;;;16.0;100.0
15558;BME280;7880;50.110;9.372;2023-07-20T23:50:47;15.539885130175389;;;16.0;100.0
15558;BME280;7880;50.110;9.372;2023-07-20T23:55:53;15.539885130175389;;;15.937;100.0
